createdAt,value
2019-02-11T00:01:28.484Z,100.00
2019-02-11T00:03:59.716Z,100.00
2019-02-11T00:06:28.802Z,100.00
2019-02-11T00:08:58.083Z,99.58
2019-02-11T00:11:27.498Z,100.00
2019-02-11T00:13:56.862Z,99.90
2019-02-11T00:16:26.288Z,99.98
2019-02-11T00:18:55.618Z,99.68
2019-02-11T00:21:24.981Z,99.32
2019-02-11T00:23:54.327Z,99.70
2019-02-11T00:26:23.610Z,98.61
2019-02-11T00:28:53.108Z,99.16
2019-02-11T00:31:22.447Z,99.48
2019-02-11T00:33:52.100Z,99.31
2019-02-11T00:36:21.700Z,99.17
2019-02-11T00:38:50.952Z,99.17
2019-02-11T00:41:20.273Z,98.78
2019-02-11T00:43:49.508Z,98.75
2019-02-11T00:46:18.698Z,98.66
2019-02-11T00:48:48.028Z,98.37
2019-02-11T00:51:17.713Z,98.30
2019-02-11T00:53:47.832Z,98.04
2019-02-11T00:56:17.457Z,97.58
2019-02-11T00:58:47.086Z,97.67
2019-02-11T01:01:16.452Z,97.78
2019-02-11T01:03:45.971Z,97.52
2019-02-11T01:06:15.469Z,97.74
2019-02-11T01:08:44.986Z,97.59
2019-02-11T01:11:14.391Z,97.72
2019-02-11T01:13:43.826Z,97.81
2019-02-11T01:16:13.238Z,97.77
2019-02-11T01:18:42.591Z,97.73
2019-02-11T01:21:12.033Z,98.00
2019-02-11T01:23:45.629Z,97.51
2019-02-11T01:26:15.108Z,97.63
2019-02-11T01:28:44.920Z,97.60
2019-02-11T01:31:14.299Z,97.13
2019-02-11T01:33:45.554Z,97.78
2019-02-11T01:36:15.049Z,97.58
2019-02-11T01:38:46.706Z,97.86
2019-02-11T01:41:16.179Z,97.87
2019-02-11T01:43:45.911Z,97.62
2019-02-11T01:46:15.394Z,97.97
2019-02-11T01:48:44.847Z,98.26
2019-02-11T01:51:14.308Z,97.82
2019-02-11T01:53:43.775Z,98.10
2019-02-11T01:56:13.187Z,97.99
2019-02-11T01:58:42.617Z,98.13
2019-02-11T02:01:13.159Z,98.23
2019-02-11T02:03:42.482Z,98.36
2019-02-11T02:06:11.928Z,98.45
2019-02-11T02:08:41.441Z,97.44
2019-02-11T02:11:10.838Z,97.63
2019-02-11T02:13:44.960Z,97.55
2019-02-11T02:16:12.207Z,97.20
2019-02-11T02:18:41.731Z,96.87
2019-02-11T02:21:11.103Z,96.67
2019-02-11T02:23:40.485Z,96.78
2019-02-11T02:26:09.828Z,95.70
2019-02-11T02:28:39.401Z,95.68
2019-02-11T02:31:08.950Z,95.96
2019-02-11T02:33:38.306Z,95.94
2019-02-11T02:36:08.812Z,96.10
2019-02-11T02:38:38.651Z,96.08
2019-02-11T02:41:09.156Z,96.00
2019-02-11T02:43:39.313Z,95.86
2019-02-11T02:46:11.017Z,96.00
2019-02-11T02:48:44.798Z,96.18
2019-02-11T02:51:16.928Z,96.29
2019-02-11T02:53:47.297Z,96.18
2019-02-11T02:56:17.588Z,95.86
2019-02-11T02:58:49.807Z,95.77
2019-02-11T03:01:19.704Z,95.67
2019-02-11T03:03:49.790Z,95.69
2019-02-11T03:06:21.528Z,95.43
2019-02-11T03:08:51.465Z,95.25
2019-02-11T03:11:20.866Z,95.12
2019-02-11T03:13:50.916Z,94.92
2019-02-11T03:16:25.074Z,94.75
2019-02-11T03:18:54.367Z,94.65
2019-02-11T03:21:28.576Z,93.84
2019-02-11T03:23:58.135Z,94.05
2019-02-11T03:26:27.477Z,93.76
2019-02-11T03:28:56.752Z,94.05
2019-02-11T03:31:26.853Z,93.31
2019-02-11T03:33:56.264Z,93.67
2019-02-11T03:36:25.600Z,93.74
2019-02-11T03:38:54.939Z,93.51
2019-02-11T03:41:24.267Z,93.90
2019-02-11T03:43:54.263Z,93.90
2019-02-11T03:46:23.807Z,93.85
2019-02-11T03:48:53.062Z,94.54
2019-02-11T03:51:24.291Z,94.85
2019-02-11T03:53:53.817Z,94.95
2019-02-11T03:56:23.100Z,94.51
2019-02-11T03:58:52.420Z,94.40
2019-02-11T04:01:21.788Z,94.54
2019-02-11T04:03:52.020Z,94.65
2019-02-11T04:06:29.122Z,94.42
2019-02-11T04:08:58.395Z,94.06
2019-02-11T04:11:27.728Z,94.58
2019-02-11T04:13:57.840Z,94.12
2019-02-11T04:16:27.109Z,94.20
2019-02-11T04:18:56.461Z,93.62
2019-02-11T04:21:25.717Z,94.10
2019-02-11T04:23:55.013Z,94.08
2019-02-11T04:26:24.475Z,93.67
2019-02-11T04:28:53.687Z,92.83
2019-02-11T04:31:23.102Z,91.98
2019-02-11T04:33:52.332Z,92.08
2019-02-11T04:36:21.686Z,92.29
2019-02-11T04:38:50.994Z,92.23
2019-02-11T04:41:20.338Z,92.08
2019-02-11T04:43:49.947Z,92.32
2019-02-11T04:46:19.315Z,92.64
2019-02-11T04:48:48.523Z,92.75
2019-02-11T04:51:17.968Z,92.56
2019-02-11T04:53:47.277Z,92.63
2019-02-11T04:56:16.767Z,92.36
2019-02-11T04:58:46.110Z,92.58
2019-02-11T05:01:15.456Z,92.99
2019-02-11T05:03:45.797Z,93.17
2019-02-11T05:06:19.316Z,92.99
2019-02-11T05:08:48.576Z,92.53
2019-02-11T05:11:17.901Z,92.17
2019-02-11T05:13:47.337Z,92.45
2019-02-11T05:16:16.662Z,92.05
2019-02-11T05:18:46.321Z,91.82
2019-02-11T05:21:15.556Z,91.48
2019-02-11T05:23:44.990Z,91.92
2019-02-11T05:26:15.260Z,92.37
2019-02-11T05:28:46.651Z,92.93
2019-02-11T05:31:15.958Z,93.54
2019-02-11T05:33:45.558Z,93.23
2019-02-11T05:36:14.950Z,93.57
2019-02-11T05:38:44.397Z,93.95
2019-02-11T05:41:13.935Z,94.15
2019-02-11T05:43:43.305Z,94.48
2019-02-11T05:46:16.967Z,94.72
2019-02-11T05:48:46.309Z,95.20
2019-02-11T05:51:18.252Z,95.17
2019-02-11T05:53:47.535Z,95.69
2019-02-11T05:56:16.884Z,95.83
2019-02-11T05:58:46.129Z,95.74
2019-02-11T06:01:16.066Z,96.18
2019-02-11T06:03:45.462Z,96.44
2019-02-11T06:06:14.919Z,95.89
2019-02-11T06:08:44.256Z,96.21
2019-02-11T06:11:13.615Z,95.84
2019-02-11T06:13:43.191Z,95.71
2019-02-11T06:16:12.842Z,95.64
2019-02-11T06:18:42.047Z,95.03
2019-02-11T06:21:11.279Z,95.16
2019-02-11T06:23:40.686Z,95.01
2019-02-11T06:26:10.571Z,94.93
2019-02-11T06:28:39.803Z,94.17
2019-02-11T06:31:09.115Z,94.44
2019-02-11T06:33:38.642Z,93.97
2019-02-11T06:36:12.241Z,93.61
2019-02-11T06:38:39.669Z,93.56
2019-02-11T06:41:09.480Z,93.46
2019-02-11T06:43:38.677Z,93.41
2019-02-11T06:46:08.116Z,94.12
2019-02-11T06:48:40.086Z,93.97
2019-02-11T06:51:09.362Z,93.62
2019-02-11T06:53:40.352Z,93.55
2019-02-11T06:56:09.676Z,93.32
2019-02-11T06:58:39.042Z,93.01
2019-02-11T07:01:08.443Z,92.88
2019-02-11T07:03:37.938Z,92.72
2019-02-11T07:06:07.428Z,92.79
2019-02-11T07:08:36.766Z,92.82
2019-02-11T07:11:06.159Z,92.83
2019-02-11T07:13:35.457Z,92.42
2019-02-11T07:16:04.686Z,92.39
2019-02-11T07:18:37.044Z,92.42
2019-02-11T07:21:05.398Z,91.81
2019-02-11T07:23:34.653Z,91.10
2019-02-11T07:26:03.903Z,90.90
2019-02-11T07:28:33.176Z,91.38
2019-02-11T07:31:02.424Z,91.94
2019-02-11T07:33:33.814Z,91.13
2019-02-11T07:36:03.134Z,90.75
2019-02-11T07:38:32.398Z,90.96
2019-02-11T07:41:01.827Z,90.40
2019-02-11T07:43:42.398Z,89.70
2019-02-11T07:46:18.578Z,90.34
2019-02-11T07:48:47.818Z,90.36
2019-02-11T07:51:17.038Z,90.31
2019-02-11T07:53:47.299Z,90.17
2019-02-11T07:56:16.620Z,90.00
2019-02-11T07:58:45.936Z,89.34
2019-02-11T08:01:15.178Z,89.10
2019-02-11T08:03:44.498Z,89.63
2019-02-11T08:06:13.815Z,90.34
2019-02-11T08:08:43.076Z,89.59
2019-02-11T08:11:12.563Z,89.44
2019-02-11T08:13:42.264Z,89.02
2019-02-11T08:16:11.691Z,89.27
2019-02-11T08:18:40.931Z,89.77
2019-02-11T08:21:11.123Z,90.87
2019-02-11T08:23:40.358Z,91.79
2019-02-11T08:26:09.816Z,92.19
2019-02-11T08:28:39.034Z,92.45
2019-02-11T08:31:08.359Z,92.33
2019-02-11T08:33:37.656Z,92.74
2019-02-11T08:36:08.024Z,93.54
2019-02-11T08:38:38.004Z,93.71
2019-02-11T08:41:07.758Z,93.91
2019-02-11T08:43:37.070Z,94.26
2019-02-11T08:46:09.920Z,94.55
2019-02-11T08:48:39.317Z,94.60
2019-02-11T08:51:08.643Z,95.42
2019-02-11T08:53:38.165Z,95.39
2019-02-11T08:56:07.816Z,95.48
2019-02-11T08:58:37.177Z,95.04
2019-02-11T09:01:06.751Z,95.34
2019-02-11T09:03:36.062Z,94.94
2019-02-11T09:06:05.437Z,95.66
2019-02-11T09:08:34.870Z,94.78
2019-02-11T09:11:04.217Z,95.20
2019-02-11T09:13:33.839Z,94.08
2019-02-11T09:16:02.952Z,93.79
2019-02-11T09:18:32.596Z,93.71
2019-02-11T09:21:03.233Z,93.69
2019-02-11T09:23:32.607Z,93.58
2019-02-11T09:26:04.827Z,93.44
2019-02-11T09:28:34.904Z,92.61
2019-02-11T09:31:04.181Z,92.18
2019-02-11T09:33:33.427Z,92.69
2019-02-11T09:36:03.481Z,91.67
2019-02-11T09:38:33.590Z,90.93
2019-02-11T09:41:03.230Z,90.43
2019-02-11T09:43:32.915Z,90.24
2019-02-11T09:46:03.900Z,90.04
2019-02-11T09:48:33.259Z,89.13
2019-02-11T09:51:03.500Z,87.90
2019-02-11T09:53:33.186Z,88.49
2019-02-11T09:56:03.134Z,87.90
2019-02-11T09:58:32.522Z,87.09
2019-02-11T10:01:02.350Z,88.25
2019-02-11T10:03:31.691Z,88.27
2019-02-11T10:06:00.962Z,88.09
2019-02-11T10:08:30.330Z,88.23
2019-02-11T10:10:59.698Z,88.46
2019-02-11T10:13:29.006Z,88.68
2019-02-11T10:15:58.238Z,88.58
2019-02-11T10:18:27.660Z,86.75
2019-02-11T10:20:56.913Z,86.05
2019-02-11T10:23:26.479Z,87.56
2019-02-11T10:25:55.726Z,87.51
2019-02-11T10:28:24.973Z,87.18
2019-02-11T10:30:54.472Z,86.12
2019-02-11T10:33:23.790Z,86.76
2019-02-11T10:35:53.202Z,87.97
2019-02-11T10:38:23.450Z,87.30
2019-02-11T10:40:52.708Z,87.85
2019-02-11T10:43:21.975Z,86.66
2019-02-11T10:45:53.498Z,87.00
2019-02-11T10:48:25.465Z,87.05
2019-02-11T10:50:54.761Z,87.80
2019-02-11T10:53:26.705Z,87.73
2019-02-11T10:55:56.014Z,88.02
2019-02-11T10:58:44.470Z,87.26
2019-02-11T11:01:13.703Z,86.65
2019-02-11T11:03:43.079Z,87.47
2019-02-11T11:06:12.347Z,87.01
2019-02-11T11:08:41.696Z,87.05
2019-02-11T11:11:10.975Z,87.48
2019-02-11T11:13:40.350Z,86.23
2019-02-11T11:16:09.667Z,85.57
2019-02-11T11:18:38.988Z,84.21
2019-02-11T11:21:10.271Z,83.14
2019-02-11T11:23:39.632Z,79.47
2019-02-11T11:26:08.907Z,80.29
2019-02-11T11:28:40.724Z,76.25
2019-02-11T11:31:30.468Z,81.52
2019-02-11T11:33:59.833Z,87.12
2019-02-11T11:36:29.058Z,91.16
2019-02-11T11:38:58.346Z,93.78
2019-02-11T11:41:27.528Z,95.46
2019-02-11T11:43:56.791Z,96.12
2019-02-11T11:46:26.158Z,96.66
2019-02-11T11:48:55.448Z,96.31
2019-02-11T11:51:24.800Z,96.21
2019-02-11T11:53:54.122Z,95.69
2019-02-11T11:56:23.340Z,94.70
2019-02-11T11:58:52.781Z,92.81
2019-02-11T12:01:22.047Z,92.57
2019-02-11T12:03:51.481Z,90.90
2019-02-11T12:06:20.665Z,91.27
2019-02-11T12:08:51.048Z,91.01
2019-02-11T12:11:20.358Z,91.87
2019-02-11T12:13:49.713Z,91.66
2019-02-11T12:16:19.034Z,90.68
2019-02-11T12:18:49.334Z,90.93
2019-02-11T12:21:18.651Z,91.27
2019-02-11T12:23:49.234Z,90.02
2019-02-11T12:26:21.714Z,89.29
2019-02-11T12:28:51.216Z,90.08
2019-02-11T12:31:39.624Z,89.16
2019-02-11T12:34:11.327Z,88.53
2019-02-11T12:36:48.039Z,84.13
2019-02-11T12:39:36.472Z,83.77
2019-02-11T12:42:05.898Z,85.86
2019-02-11T12:44:36.316Z,86.40
2019-02-11T12:47:14.219Z,89.33
2019-02-11T12:49:39.640Z,90.53
2019-02-11T12:52:09.085Z,90.57
2019-02-11T12:54:38.806Z,91.72
2019-02-11T12:57:08.305Z,92.51
2019-02-11T12:59:37.997Z,92.57
2019-02-11T13:02:07.476Z,92.11
2019-02-11T13:04:37.387Z,91.36
2019-02-11T13:07:07.985Z,90.38
2019-02-11T13:09:37.663Z,90.76
2019-02-11T13:12:07.164Z,91.03
2019-02-11T13:14:37.379Z,90.83
2019-02-11T13:17:15.537Z,90.35
2019-02-11T13:19:45.978Z,89.36
2019-02-11T13:22:29.933Z,90.00
2019-02-11T13:25:22.241Z,87.59
2019-02-11T13:27:52.686Z,88.07
2019-02-11T13:30:39.706Z,85.42
2019-02-11T13:39:28.530Z,76.87
2019-02-11T13:42:06.939Z,74.67
2019-02-11T13:44:59.718Z,76.65
2019-02-11T13:55:29.977Z,87.39
2019-02-11T14:00:50.105Z,84.59
2019-02-11T14:06:57.850Z,79.05
2019-02-11T14:09:30.363Z,76.38
2019-02-11T14:11:59.844Z,67.02
2019-02-11T14:14:30.448Z,61.77
2019-02-11T14:17:02.668Z,60.89
2019-02-11T14:19:37.241Z,57.68
2019-02-11T14:22:07.109Z,55.10
2019-02-11T14:24:40.767Z,53.94
2019-02-11T14:27:10.398Z,53.14
2019-02-11T14:29:40.896Z,51.38
2019-02-11T14:32:10.691Z,52.06
2019-02-11T14:34:40.566Z,52.66
2019-02-11T14:37:10.067Z,52.42
2019-02-11T14:39:39.714Z,50.87
2019-02-11T14:42:09.476Z,46.16
2019-02-11T14:44:38.833Z,45.81
2019-02-11T14:47:15.726Z,46.21
2019-02-11T14:49:46.024Z,51.67
2019-02-11T14:52:31.100Z,57.63
2019-02-11T14:55:04.158Z,61.98
2019-02-11T14:57:34.165Z,65.96
2019-02-11T15:00:06.202Z,70.17
2019-02-11T15:09:58.885Z,72.60
2019-02-11T15:13:03.196Z,69.69
2019-02-11T15:16:16.668Z,69.07
2019-02-11T15:18:46.205Z,65.88
2019-02-11T15:21:17.427Z,58.30
2019-02-11T15:23:46.921Z,53.87
2019-02-11T15:26:16.518Z,53.06
2019-02-11T15:28:47.634Z,50.96
2019-02-11T15:31:17.312Z,51.55
2019-02-11T15:33:47.088Z,49.63
2019-02-11T15:36:17.125Z,53.45
2019-02-11T15:38:55.856Z,56.56
2019-02-11T15:41:27.677Z,59.86
2019-02-11T15:44:19.855Z,61.50
2019-02-11T15:47:14.851Z,62.71
2019-02-11T15:49:52.231Z,64.95
2019-02-11T15:52:34.188Z,67.15
2019-02-11T15:55:15.530Z,68.48
2019-02-11T15:57:50.471Z,69.42
2019-02-11T16:00:26.443Z,69.77
2019-02-11T16:03:02.376Z,71.00
2019-02-11T16:05:33.797Z,71.31
2019-02-11T16:08:07.353Z,71.77
2019-02-11T16:10:38.962Z,72.10
2019-02-11T16:13:18.410Z,72.91
2019-02-11T16:15:49.894Z,73.48
2019-02-11T16:18:33.184Z,73.78
2019-02-11T16:21:04.859Z,74.05
2019-02-11T16:23:35.855Z,74.66
2019-02-11T16:26:08.126Z,74.60
2019-02-11T16:28:39.027Z,74.79
2019-02-11T16:31:12.051Z,74.97
2019-02-11T16:33:42.986Z,75.29
2019-02-11T16:36:12.697Z,75.33
2019-02-11T16:38:42.559Z,75.65
2019-02-11T16:41:12.318Z,76.19
2019-02-11T16:43:43.235Z,76.87
2019-02-11T16:46:13.038Z,77.49
2019-02-11T16:48:43.055Z,77.87
2019-02-11T16:51:14.301Z,78.46
2019-02-11T16:53:44.170Z,78.73
2019-02-11T16:56:17.687Z,79.16
2019-02-11T16:58:50.676Z,79.70
2019-02-11T17:01:22.504Z,79.98
2019-02-11T17:04:19.550Z,80.36
2019-02-11T17:06:58.547Z,80.78
2019-02-11T17:09:29.313Z,80.70
2019-02-11T17:19:43.196Z,80.04
2019-02-11T17:23:22.149Z,81.00
2019-02-11T17:32:27.307Z,86.35
2019-02-11T17:34:58.761Z,87.71
2019-02-11T17:37:29.061Z,88.15
2019-02-11T17:40:00.503Z,88.90
2019-02-11T17:42:34.773Z,89.34
2019-02-11T17:45:04.859Z,89.68
2019-02-11T17:47:35.409Z,89.46
2019-02-11T17:50:07.505Z,89.19
2019-02-11T17:52:42.952Z,88.85
2019-02-11T17:55:16.201Z,88.83
2019-02-11T17:57:46.074Z,88.78
2019-02-11T18:00:25.864Z,88.50
2019-02-11T18:02:55.713Z,88.54
2019-02-11T18:05:25.452Z,88.59
2019-02-11T18:07:56.029Z,88.63
2019-02-11T18:10:26.444Z,88.64
2019-02-11T18:13:00.071Z,88.50
2019-02-11T18:15:30.639Z,88.44
2019-02-11T18:28:37.027Z,89.19
2019-02-11T18:31:08.681Z,90.31
2019-02-11T18:33:43.730Z,91.25
2019-02-11T18:39:50.980Z,91.39
2019-02-11T18:53:35.043Z,90.70
2019-02-11T19:00:07.038Z,90.35
2019-02-11T19:03:17.558Z,89.96
2019-02-11T19:06:16.867Z,89.39
2019-02-11T19:24:18.343Z,87.15
2019-02-11T19:30:24.286Z,86.54
2019-02-11T19:39:21.660Z,86.88
2019-02-11T19:48:25.220Z,87.66
2019-02-11T19:50:55.071Z,87.63
2019-02-11T19:53:25.435Z,86.94
2019-02-11T19:55:55.342Z,86.18
2019-02-11T19:58:25.454Z,85.99
2019-02-11T20:00:55.455Z,84.39
2019-02-11T20:03:46.609Z,84.29
2019-02-11T20:09:02.978Z,83.35
2019-02-11T20:11:33.062Z,83.53
2019-02-11T20:14:03.177Z,83.18
2019-02-11T20:16:32.990Z,82.35
2019-02-11T20:19:02.836Z,82.02
2019-02-11T20:21:32.763Z,82.02
2019-02-11T20:24:02.897Z,81.48
2019-02-11T20:26:32.684Z,80.45
2019-02-11T20:29:03.237Z,80.06
2019-02-11T20:31:32.959Z,79.50
2019-02-11T20:34:03.395Z,78.94
2019-02-11T20:36:33.201Z,78.90
2019-02-11T20:42:16.579Z,76.96
2019-02-11T20:44:47.985Z,75.94
2019-02-11T20:47:37.450Z,75.84
2019-02-11T20:50:14.685Z,75.12
2019-02-11T20:53:04.893Z,74.94
2019-02-11T20:55:42.535Z,74.19
2019-02-11T20:58:40.828Z,74.33
2019-02-11T21:01:33.127Z,74.30
2019-02-11T21:04:32.405Z,73.97
2019-02-11T21:14:34.827Z,74.95
2019-02-11T21:17:04.613Z,75.46
2019-02-11T21:19:34.236Z,75.29
2019-02-11T21:22:03.962Z,75.69
2019-02-11T21:24:33.741Z,76.12
2019-02-11T21:27:03.669Z,76.09
2019-02-11T21:29:34.211Z,76.16
2019-02-11T21:32:03.998Z,76.31
2019-02-11T21:34:34.028Z,76.26
2019-02-11T21:37:04.050Z,76.11
2019-02-11T21:51:02.955Z,76.11
2019-02-11T21:56:57.200Z,75.72
2019-02-11T22:06:50.139Z,74.80
2019-02-11T22:37:43.356Z,78.74
2019-02-11T22:47:26.563Z,80.59
2019-02-11T22:51:06.787Z,81.02
2019-02-11T23:01:20.587Z,83.08
2019-02-11T23:07:42.150Z,83.54
2019-02-11T23:10:11.996Z,84.17
2019-02-11T23:15:59.364Z,84.39
2019-02-11T23:18:28.817Z,84.97
2019-02-11T23:20:58.410Z,85.94
2019-02-11T23:23:28.324Z,87.07
2019-02-11T23:25:57.861Z,88.15
2019-02-11T23:28:27.985Z,89.46
2019-02-11T23:40:26.082Z,92.23
2019-02-11T23:43:02.911Z,92.08
2019-02-11T23:48:15.023Z,93.58
